Time;durP1;ratioP1;P1;durP2;ratioP2;P2;SDS_P1;SDS_P2;PMS_P1;PMS_P2;Temp;Humidity;BMP_temperature;BMP_pressure;BME280_temperature;BME280_humidity;BME280_pressure;Samples;Min_cycle;Max_cycle;Signal;HPM_P1;HPM_P2
2021/12/05 00:19:09;;;;;;;4.15;0.77;;;;;;;;;;5031676;28;20094;-49
2021/12/05 00:21:44;;;;;;;2.08;0.52;;;;;;;;;;5031188;28;20065;-49
2021/12/05 00:24:16;;;;;;;1.98;0.68;;;;;;;;;;5032158;28;20374;-49
2021/12/05 00:26:46;;;;;;;3.22;0.98;;;;;;;;;;5035789;28;20029;-48
2021/12/05 00:29:54;;;;;;;0.98;0.65;;;;;;;;;;5034728;28;20032;-53
2021/12/05 00:32:32;;;;;;;1.00;0.50;;;;;;;;;;5031527;28;20029;-47
2021/12/05 00:35:38;;;;;;;1.02;0.47;;;;;;;;;;5035325;28;20116;-52
2021/12/05 01:02:12;;;;;;;1.83;0.60;;;;;;;;;;5055195;28;20041;-53
2021/12/05 01:17:35;;;;;;;0.90;0.47;;;;;;;;;;5034840;28;20116;-52
2021/12/05 01:20:04;;;;;;;1.20;0.73;;;;;;;;;;5034429;28;20030;-57
2021/12/05 01:22:34;;;;;;;1.20;0.50;;;;;;;;;;5034671;28;20021;-50
2021/12/05 01:25:23;;;;;;;1.55;0.70;;;;;;;;;;5034573;28;20014;-58
2021/12/05 01:28:14;;;;;;;3.83;1.25;;;;;;;;;;5034694;28;20092;-48
2021/12/05 01:30:53;;;;;;;0.85;0.55;;;;;;;;;;5034267;28;20041;-48
2021/12/05 01:33:27;;;;;;;1.60;1.10;;;;;;;;;;5033926;28;20041;-47
2021/12/05 02:07:38;;;;;;;1.70;0.45;;;;;;;;;;5033263;28;20044;-56
2021/12/05 02:36:08;;;;;;;0.88;0.40;;;;;;;;;;5033100;28;20036;-54
2021/12/05 02:38:51;;;;;;;1.13;0.75;;;;;;;;;;5032217;28;20029;-48
2021/12/05 02:41:22;;;;;;;0.55;0.38;;;;;;;;;;5032174;28;20034;-53
2021/12/05 02:43:58;;;;;;;1.07;0.60;;;;;;;;;;5033379;28;20056;-48
2021/12/05 02:46:25;;;;;;;1.60;0.98;;;;;;;;;;5031783;28;20874;-49
2021/12/05 02:48:52;;;;;;;1.45;0.60;;;;;;;;;;5033023;28;20113;-48
2021/12/05 02:51:23;;;;;;;2.50;0.47;;;;;;;;;;5032466;28;20025;-50
2021/12/05 02:54:22;;;;;;;1.13;0.50;;;;;;;;;;5033110;28;20447;-48
2021/12/05 02:56:46;;;;;;;1.65;0.68;;;;;;;;;;5031731;28;20046;-50
2021/12/05 03:02:03;;;;;;;1.05;0.52;;;;;;;;;;5052687;28;20103;-53
2021/12/05 03:04:32;;;;;;;1.35;0.70;;;;;;;;;;5052276;28;20094;-49
2021/12/05 03:07:00;;;;;;;0.55;0.35;;;;;;;;;;5040375;28;20029;-49
2021/12/05 03:09:26;;;;;;;2.42;0.95;;;;;;;;;;5031710;28;20013;-51
2021/12/05 03:11:52;;;;;;;1.50;0.60;;;;;;;;;;5032819;28;20039;-52
2021/12/05 03:14:19;;;;;;;1.02;0.50;;;;;;;;;;5031869;28;20021;-52
2021/12/05 03:16:45;;;;;;;1.02;0.50;;;;;;;;;;5031360;28;20450;-50
2021/12/05 03:19:11;;;;;;;3.25;1.25;;;;;;;;;;5031831;28;20048;-49
2021/12/05 03:21:39;;;;;;;2.05;0.50;;;;;;;;;;5032548;28;20036;-52
2021/12/05 03:24:06;;;;;;;1.02;0.50;;;;;;;;;;5032504;28;20112;-58
2021/12/05 03:26:34;;;;;;;1.95;1.05;;;;;;;;;;5032463;28;20041;-52
2021/12/05 03:29:00;;;;;;;2.10;0.70;;;;;;;;;;5032427;28;20392;-50
2021/12/05 03:31:27;;;;;;;0.95;0.70;;;;;;;;;;5031551;28;20032;-51
2021/12/05 03:33:54;;;;;;;1.83;0.70;;;;;;;;;;5032639;28;20079;-50
2021/12/05 03:36:20;;;;;;;1.05;0.45;;;;;;;;;;5031459;28;20025;-51
2021/12/05 03:38:47;;;;;;;1.42;0.60;;;;;;;;;;5032623;28;20053;-51
2021/12/05 03:41:13;;;;;;;0.95;0.60;;;;;;;;;;5031346;28;20026;-49
2021/12/05 03:43:41;;;;;;;0.85;0.60;;;;;;;;;;5031847;28;20025;-48
2021/12/05 03:46:07;;;;;;;0.90;0.50;;;;;;;;;;5031613;28;20060;-55
2021/12/05 03:48:38;;;;;;;1.05;0.68;;;;;;;;;;5031909;28;20026;-48
2021/12/05 03:51:05;;;;;;;0.85;0.40;;;;;;;;;;5032284;28;20044;-47
2021/12/05 03:53:31;;;;;;;1.23;0.60;;;;;;;;;;5031672;28;20032;-50
2021/12/05 03:56:04;;;;;;;1.27;0.40;;;;;;;;;;5031625;28;20452;-52
2021/12/05 03:58:30;;;;;;;1.00;0.57;;;;;;;;;;5037003;28;20021;-47
2021/12/05 04:00:58;;;;;;;1.05;0.60;;;;;;;;;;5051652;28;20052;-47
2021/12/05 04:03:24;;;;;;;0.50;0.38;;;;;;;;;;5050949;28;20455;-47
2021/12/05 04:05:51;;;;;;;1.10;0.57;;;;;;;;;;5048295;28;20071;-48
2021/12/05 04:08:18;;;;;;;1.15;0.55;;;;;;;;;;5031053;28;20416;-50
2021/12/05 04:10:48;;;;;;;0.40;0.30;;;;;;;;;;5031744;28;20030;-51
2021/12/05 04:13:14;;;;;;;1.02;0.77;;;;;;;;;;5031082;28;20029;-54
2021/12/05 04:15:41;;;;;;;1.02;0.45;;;;;;;;;;5031565;28;20133;-48
2021/12/05 04:18:07;;;;;;;2.28;0.60;;;;;;;;;;5031700;28;20077;-56
2021/12/05 04:20:33;;;;;;;1.80;0.85;;;;;;;;;;5031049;28;20057;-49
2021/12/05 04:23:00;;;;;;;1.17;0.52;;;;;;;;;;5031926;28;20034;-50
2021/12/05 04:25:26;;;;;;;1.85;0.65;;;;;;;;;;5030792;28;20075;-50
2021/12/05 04:27:53;;;;;;;0.68;0.40;;;;;;;;;;5031601;28;20029;-48
2021/12/05 04:30:21;;;;;;;0.95;0.40;;;;;;;;;;5030974;28;20045;-49
2021/12/05 04:32:47;;;;;;;0.93;0.40;;;;;;;;;;5030827;28;20029;-48
2021/12/05 04:35:13;;;;;;;1.00;0.68;;;;;;;;;;5030696;28;20080;-48
2021/12/05 04:37:39;;;;;;;1.17;0.38;;;;;;;;;;5031618;28;20029;-51
2021/12/05 04:40:06;;;;;;;1.13;0.50;;;;;;;;;;5030370;28;20116;-47
2021/12/05 04:42:32;;;;;;;1.88;0.85;;;;;;;;;;5030944;28;20029;-51
2021/12/05 04:45:01;;;;;;;1.30;0.52;;;;;;;;;;5031076;28;20049;-48
2021/12/05 04:47:27;;;;;;;0.70;0.60;;;;;;;;;;5029667;28;20079;-51
2021/12/05 04:49:53;;;;;;;0.88;0.47;;;;;;;;;;5031337;28;20029;-47
2021/12/05 04:52:19;;;;;;;0.82;0.43;;;;;;;;;;5029586;28;20026;-48
2021/12/05 04:54:45;;;;;;;1.30;0.68;;;;;;;;;;5031487;28;20053;-52
2021/12/05 04:57:11;;;;;;;1.02;0.50;;;;;;;;;;5030697;28;20099;-56
2021/12/05 04:59:44;;;;;;;1.13;0.50;;;;;;;;;;5046982;28;20021;-51
2021/12/05 05:02:10;;;;;;;0.75;0.45;;;;;;;;;;5041819;28;20034;-55
2021/12/05 05:04:42;;;;;;;1.15;0.47;;;;;;;;;;5031116;28;20025;-51
2021/12/05 05:07:14;;;;;;;1.13;0.40;;;;;;;;;;5031267;28;20057;-57
2021/12/05 05:09:41;;;;;;;0.40;0.40;;;;;;;;;;5031939;28;20083;-50
2021/12/05 05:12:07;;;;;;;1.80;0.50;;;;;;;;;;5034459;28;20051;-47
2021/12/05 05:14:33;;;;;;;1.45;0.43;;;;;;;;;;5034074;28;20466;-53
2021/12/05 05:16:59;;;;;;;2.40;0.80;;;;;;;;;;5034825;28;20084;-51
2021/12/05 05:19:37;;;;;;;1.98;0.68;;;;;;;;;;5033748;28;20029;-51
2021/12/05 05:27:56;;;;;;;1.65;0.77;;;;;;;;;;5033871;28;20033;-48
2021/12/05 05:49:33;;;;;;;0.98;0.43;;;;;;;;;;5038441;28;20453;-50
2021/12/05 05:52:00;;;;;;;0.75;0.28;;;;;;;;;;5055290;28;20401;-52
2021/12/05 05:54:26;;;;;;;2.55;0.45;;;;;;;;;;5054270;28;20025;-49
2021/12/05 05:56:57;;;;;;;0.60;0.40;;;;;;;;;;5053989;28;20029;-48
2021/12/05 05:59:33;;;;;;;1.45;0.68;;;;;;;;;;5039384;28;20377;-49
2021/12/05 06:04:34;;;;;;;2.20;0.52;;;;;;;;;;5033359;28;20128;-47
2021/12/05 06:07:00;;;;;;;3.47;0.80;;;;;;;;;;5035191;28;20509;-47
2021/12/05 06:09:26;;;;;;;14.00;1.60;;;;;;;;;;5041420;28;20092;-51
2021/12/05 06:11:52;;;;;;;2.55;0.60;;;;;;;;;;5043003;28;20041;-51
2021/12/05 06:14:19;;;;;;;1.50;0.50;;;;;;;;;;5040458;28;20071;-50
2021/12/05 06:16:45;;;;;;;1.65;0.82;;;;;;;;;;5042443;28;20033;-48
2021/12/05 06:19:12;;;;;;;1.90;0.60;;;;;;;;;;5043235;28;20033;-54
2021/12/05 06:21:38;;;;;;;1.67;0.60;;;;;;;;;;5034982;28;20021;-50
2021/12/05 06:24:04;;;;;;;2.63;0.70;;;;;;;;;;5042173;28;20461;-52
2021/12/05 06:26:33;;;;;;;3.13;0.90;;;;;;;;;;5040708;28;20013;-50
2021/12/05 06:29:09;;;;;;;1.63;0.50;;;;;;;;;;5033224;28;20076;-49
2021/12/05 06:31:54;;;;;;;0.88;0.30;;;;;;;;;;5032292;28;20502;-51
2021/12/05 06:40:33;;;;;;;3.40;0.60;;;;;;;;;;5033139;28;20030;-53
2021/12/05 06:47:43;;;;;;;2.55;0.65;;;;;;;;;;5033046;28;20490;-53
2021/12/05 06:50:09;;;;;;;1.48;0.60;;;;;;;;;;5050111;28;20528;-52
2021/12/05 06:52:35;;;;;;;2.70;0.55;;;;;;;;;;5051989;28;20025;-50
2021/12/05 06:55:01;;;;;;;3.70;0.73;;;;;;;;;;5053390;28;20355;-48
2021/12/05 06:57:27;;;;;;;1.55;0.82;;;;;;;;;;5034247;28;20032;-50
2021/12/05 06:59:53;;;;;;;3.58;0.40;;;;;;;;;;5034607;28;20029;-49
2021/12/05 07:02:19;;;;;;;1.33;0.40;;;;;;;;;;5031884;28;20037;-49
2021/12/05 07:07:27;;;;;;;3.22;0.73;;;;;;;;;;5032014;28;20029;-56
2021/12/05 07:09:53;;;;;;;2.83;0.55;;;;;;;;;;5032941;28;20030;-53
2021/12/05 07:23:09;;;;;;;1.80;0.47;;;;;;;;;;5051792;28;20964;-54
2021/12/05 07:25:29;;;;;;;4.85;0.63;;;;;;;;;;5051219;28;20480;-54
2021/12/05 07:41:49;;;;;;;3.13;0.77;;;;;;;;;;5031568;28;20180;-51
2021/12/05 07:44:16;;;;;;;4.55;0.65;;;;;;;;;;5031741;28;20021;-57
2021/12/05 07:46:42;;;;;;;5.18;1.10;;;;;;;;;;5031611;28;20060;-47
2021/12/05 07:49:10;;;;;;;2.78;0.73;;;;;;;;;;5032078;28;20036;-54
2021/12/05 07:51:41;;;;;;;5.20;0.98;;;;;;;;;;5031343;28;20068;-53
2021/12/05 07:54:16;;;;;;;1.58;0.40;;;;;;;;;;5032050;28;20029;-51
2021/12/05 08:15:27;;;;;;;3.78;0.80;;;;;;;;;;5031101;28;20048;-48
2021/12/05 08:17:55;;;;;;;3.22;0.60;;;;;;;;;;5031427;28;20382;-51
2021/12/05 08:20:26;;;;;;;2.17;0.45;;;;;;;;;;5049902;28;20055;-47
2021/12/05 08:22:52;;;;;;;1.17;0.70;;;;;;;;;;5051751;28;20043;-49
2021/12/05 08:25:21;;;;;;;4.00;0.60;;;;;;;;;;5042041;28;20063;-53
2021/12/05 08:27:52;;;;;;;3.90;0.40;;;;;;;;;;5041349;28;20471;-52
2021/12/05 08:31:02;;;;;;;3.72;0.50;;;;;;;;;;5040425;28;20064;-55
2021/12/05 08:33:25;;;;;;;2.35;0.70;;;;;;;;;;5037280;28;20025;-51
2021/12/05 08:44:31;;;;;;;2.10;0.77;;;;;;;;;;5040506;28;20091;-54
2021/12/05 10:03:07;;;;;;;5.13;0.90;;;;;;;;;;5033627;28;20529;-59
2021/12/05 10:13:51;;;;;;;4.95;0.70;;;;;;;;;;5033148;28;20032;-54
2021/12/05 10:16:33;;;;;;;6.00;0.80;;;;;;;;;;5033764;28;20033;-58
2021/12/05 10:37:40;;;;;;;16.67;10.65;;;;;;;;;;5052423;28;20037;-49
2021/12/05 10:40:09;;;;;;;18.98;15.43;;;;;;;;;;5053089;28;20017;-48
2021/12/05 10:42:44;;;;;;;35.75;22.70;;;;;;;;;;5052356;28;20029;-47
2021/12/05 10:45:19;;;;;;;30.08;20.70;;;;;;;;;;5052899;28;20045;-47
2021/12/05 10:47:47;;;;;;;25.17;17.33;;;;;;;;;;5052735;28;20036;-47
2021/12/05 10:50:32;;;;;;;29.45;17.85;;;;;;;;;;5052667;28;20116;-47
2021/12/05 10:53:16;;;;;;;24.60;16.90;;;;;;;;;;5053311;28;20021;-49
2021/12/05 10:55:42;;;;;;;23.25;15.63;;;;;;;;;;5052236;28;20080;-50
2021/12/05 10:58:08;;;;;;;23.35;15.48;;;;;;;;;;5045020;28;20036;-47
2021/12/05 11:00:34;;;;;;;22.50;13.95;;;;;;;;;;5051992;28;20108;-48
2021/12/05 11:03:14;;;;;;;19.08;13.23;;;;;;;;;;5043221;28;20060;-47
2021/12/05 11:05:41;;;;;;;20.35;12.73;;;;;;;;;;5031782;28;20641;-48
2021/12/05 11:08:27;;;;;;;23.00;13.10;;;;;;;;;;5034764;28;20029;-46
2021/12/05 11:11:06;;;;;;;17.65;10.05;;;;;;;;;;5029079;28;20073;-47
2021/12/05 11:13:32;;;;;;;14.43;10.07;;;;;;;;;;5029426;28;20025;-52
2021/12/05 11:15:58;;;;;;;14.63;10.13;;;;;;;;;;5032820;28;20029;-50
2021/12/05 11:18:42;;;;;;;11.65;7.03;;;;;;;;;;5034470;28;20044;-50
2021/12/05 11:21:24;;;;;;;10.18;6.35;;;;;;;;;;5052269;28;20029;-47
2021/12/05 11:23:50;;;;;;;;;;;;;;;;;;5052842;28;20098;-47
2021/12/05 11:26:17;;;;;;;13.80;7.97;;;;;;;;;;5052523;28;20349;-50
2021/12/05 11:28:53;;;;;;;11.15;5.18;;;;;;;;;;5050337;28;20392;-51
2021/12/05 11:31:27;;;;;;;3.40;1.90;;;;;;;;;;5051960;28;20393;-56
2021/12/05 11:33:55;;;;;;;2.05;0.82;;;;;;;;;;5052383;28;20024;-48
2021/12/05 11:36:26;;;;;;;1.75;0.93;;;;;;;;;;5052984;28;20041;-49
2021/12/05 11:38:52;;;;;;;1.52;0.77;;;;;;;;;;5051410;28;20111;-47
2021/12/05 11:41:22;;;;;;;1.92;0.90;;;;;;;;;;5052301;28;20056;-46
2021/12/05 11:43:56;;;;;;;1.95;1.38;;;;;;;;;;5051873;28;20024;-50
2021/12/05 11:46:33;;;;;;;3.10;1.35;;;;;;;;;;5051606;28;20430;-53
2021/12/05 11:49:13;;;;;;;3.53;1.33;;;;;;;;;;5044220;28;20032;-48
2021/12/05 11:51:44;;;;;;;3.38;1.33;;;;;;;;;;5031204;28;20044;-47
2021/12/05 11:54:16;;;;;;;3.45;1.40;;;;;;;;;;5032246;28;20022;-51
2021/12/05 11:56:51;;;;;;;3.15;1.92;;;;;;;;;;5031252;28;20021;-50
2021/12/05 11:59:31;;;;;;;2.55;1.45;;;;;;;;;;5043692;28;20036;-47
2021/12/05 12:01:57;;;;;;;4.95;1.50;;;;;;;;;;5051464;28;20051;-47
2021/12/05 12:04:37;;;;;;;6.10;1.20;;;;;;;;;;5039816;28;20013;-53
2021/12/05 12:07:12;;;;;;;3.88;1.90;;;;;;;;;;5031749;28;20347;-47
2021/12/05 12:09:39;;;;;;;3.83;1.20;;;;;;;;;;5031023;28;20100;-50
2021/12/05 12:12:05;;;;;;;4.35;1.50;;;;;;;;;;5031498;28;20040;-52
2021/12/05 12:14:31;;;;;;;4.88;1.50;;;;;;;;;;5031109;28;20105;-50
2021/12/05 12:16:58;;;;;;;11.25;1.88;;;;;;;;;;5031830;28;20032;-49
2021/12/05 12:19:24;;;;;;;9.75;1.77;;;;;;;;;;5030907;28;20462;-54
2021/12/05 12:21:56;;;;;;;2.58;1.55;;;;;;;;;;5031995;28;20506;-48
2021/12/05 12:24:28;;;;;;;6.60;2.10;;;;;;;;;;5035510;28;20367;-51
2021/12/05 12:26:54;;;;;;;6.60;1.88;;;;;;;;;;5035842;28;20025;-48
2021/12/05 12:29:21;;;;;;;4.70;1.70;;;;;;;;;;5034934;28;20025;-44
2021/12/05 12:31:49;;;;;;;7.57;1.67;;;;;;;;;;5035827;28;20099;-46
2021/12/05 12:34:18;;;;;;;6.45;1.80;;;;;;;;;;5032556;28;20029;-46
2021/12/05 12:36:48;;;;;;;4.53;1.60;;;;;;;;;;5036644;28;20033;-47
2021/12/05 12:39:20;;;;;;;9.50;3.88;;;;;;;;;;5035483;28;20072;-45
2021/12/05 12:42:10;;;;;;;11.88;4.45;;;;;;;;;;5033818;28;20390;-46
2021/12/05 12:44:37;;;;;;;7.38;3.05;;;;;;;;;;5034391;28;20022;-46
2021/12/05 12:47:04;;;;;;;9.15;3.35;;;;;;;;;;5035350;28;20029;-46
2021/12/05 12:49:35;;;;;;;12.82;4.28;;;;;;;;;;5034785;28;20109;-48
2021/12/05 12:52:06;;;;;;;10.45;3.40;;;;;;;;;;5035018;28;20033;-45
2021/12/05 12:54:43;;;;;;;6.38;3.28;;;;;;;;;;5033340;28;20021;-46
2021/12/05 12:57:15;;;;;;;7.03;2.95;;;;;;;;;;5035138;28;20013;-44
2021/12/05 13:00:04;;;;;;;5.57;2.83;;;;;;;;;;5050425;28;20056;-50
2021/12/05 13:02:56;;;;;;;6.68;3.15;;;;;;;;;;5040432;28;20120;-47
2021/12/05 13:07:21;;;;;;;7.18;2.50;;;;;;;;;;5035268;28;20014;-47
2021/12/05 13:11:08;;;;;;;8.70;3.85;;;;;;;;;;5034788;28;20048;-48
2021/12/05 13:13:36;;;;;;;8.05;3.35;;;;;;;;;;5034154;28;20034;-46
2021/12/05 13:16:14;;;;;;;6.35;2.38;;;;;;;;;;5034915;28;20486;-45
2021/12/05 13:18:41;;;;;;;7.00;2.50;;;;;;;;;;5033981;28;20033;-46
2021/12/05 13:21:26;;;;;;;5.10;2.80;;;;;;;;;;5049710;28;20021;-48
2021/12/05 13:23:52;;;;;;;6.07;1.95;;;;;;;;;;5053904;28;20025;-47
2021/12/05 13:26:39;;;;;;;6.15;2.20;;;;;;;;;;5054538;28;20131;-48
2021/12/05 13:29:16;;;;;;;4.82;2.58;;;;;;;;;;5053541;28;20025;-48
2021/12/05 13:31:57;;;;;;;4.78;2.00;;;;;;;;;;5035771;28;20037;-45
2021/12/05 13:34:25;;;;;;;4.47;2.27;;;;;;;;;;5039829;28;20017;-45
2021/12/05 13:36:51;;;;;;;4.65;2.10;;;;;;;;;;5036586;28;20025;-47
2021/12/05 13:39:38;;;;;;;5.47;2.10;;;;;;;;;;5041816;28;20029;-44
2021/12/05 13:42:04;;;;;;;6.40;2.10;;;;;;;;;;5017317;28;20390;-45
2021/12/05 13:44:48;;;;;;;4.82;2.22;;;;;;;;;;5045816;28;20474;-50
2021/12/05 13:47:16;;;;;;;3.33;2.00;;;;;;;;;;5041855;28;20400;-45
2021/12/05 13:49:42;;;;;;;3.58;1.92;;;;;;;;;;5041207;28;20029;-46
2021/12/05 13:52:31;;;;;;;4.68;2.00;;;;;;;;;;5053943;28;20098;-46
2021/12/05 13:55:15;;;;;;;4.50;2.03;;;;;;;;;;5035292;28;20496;-47
2021/12/05 13:58:02;;;;;;;2.33;1.65;;;;;;;;;;5038937;28;20079;-47
2021/12/05 14:00:39;;;;;;;3.53;1.65;;;;;;;;;;5066278;28;20548;-52
2021/12/05 14:03:05;;;;;;;3.38;1.48;;;;;;;;;;5038147;28;20026;-46
2021/12/05 14:05:31;;;;;;;4.43;1.60;;;;;;;;;;5047757;28;20029;-53
2021/12/05 14:07:58;;;;;;;4.45;1.30;;;;;;;;;;5043924;28;20040;-47
2021/12/05 14:10:24;;;;;;;4.13;1.77;;;;;;;;;;5041314;28;20029;-46
2021/12/05 14:12:51;;;;;;;3.17;1.80;;;;;;;;;;5052497;28;20028;-47
2021/12/05 14:15:18;;;;;;;5.65;1.75;;;;;;;;;;5052253;28;20067;-48
2021/12/05 14:17:48;;;;;;;4.60;2.13;;;;;;;;;;5032674;28;20029;-52
2021/12/05 14:20:25;;;;;;;3.53;1.55;;;;;;;;;;5033476;28;20022;-48
2021/12/05 14:22:52;;;;;;;3.75;1.63;;;;;;;;;;5047360;28;20104;-51
2021/12/05 14:25:22;;;;;;;5.10;1.90;;;;;;;;;;5032435;28;20030;-51
2021/12/05 14:27:52;;;;;;;5.68;1.80;;;;;;;;;;5034589;28;20530;-47
2021/12/05 14:30:20;;;;;;;6.13;1.85;;;;;;;;;;5053603;28;20468;-49
2021/12/05 14:32:48;;;;;;;8.30;2.10;;;;;;;;;;5054898;28;20021;-49
2021/12/05 14:35:16;;;;;;;3.75;1.80;;;;;;;;;;5033759;28;20029;-48
2021/12/05 14:37:43;;;;;;;9.98;2.10;;;;;;;;;;5033574;28;20025;-47
2021/12/05 14:40:13;;;;;;;8.05;2.10;;;;;;;;;;5048442;28;20403;-52
2021/12/05 14:42:41;;;;;;;8.32;1.95;;;;;;;;;;5032071;28;20033;-53
2021/12/05 14:45:12;;;;;;;4.63;1.50;;;;;;;;;;5032066;28;20056;-47
2021/12/05 14:47:40;;;;;;;6.93;2.03;;;;;;;;;;5031521;28;20497;-45
2021/12/05 14:50:08;;;;;;;9.50;2.10;;;;;;;;;;5032691;28;20485;-51
2021/12/05 14:52:36;;;;;;;4.85;1.65;;;;;;;;;;5032451;28;20029;-49
2021/12/05 14:55:04;;;;;;;3.60;1.08;;;;;;;;;;5032524;28;20505;-48
2021/12/05 14:57:39;;;;;;;6.57;1.45;;;;;;;;;;5033006;28;20025;-50
2021/12/05 15:00:08;;;;;;;6.05;1.80;;;;;;;;;;5032608;28;20036;-49
2021/12/05 15:02:36;;;;;;;2.42;1.33;;;;;;;;;;5037119;28;20028;-53
2021/12/05 15:05:03;;;;;;;7.85;2.10;;;;;;;;;;5052177;28;20500;-52
2021/12/05 15:07:29;;;;;;;4.20;1.45;;;;;;;;;;5052649;28;20033;-60
2021/12/05 15:09:57;;;;;;;6.57;1.50;;;;;;;;;;5050247;28;20028;-47
2021/12/05 15:12:25;;;;;;;9.32;1.70;;;;;;;;;;5052303;28;20025;-59
2021/12/05 15:14:53;;;;;;;8.98;1.55;;;;;;;;;;5051529;28;20181;-60
2021/12/05 15:17:24;;;;;;;4.63;1.40;;;;;;;;;;5051843;28;20086;-48
2021/12/05 15:19:53;;;;;;;13.32;2.15;;;;;;;;;;5051498;28;20436;-59
2021/12/05 15:22:20;;;;;;;3.72;1.55;;;;;;;;;;5052373;28;20043;-49
2021/12/05 15:24:53;;;;;;;5.10;2.05;;;;;;;;;;5051402;28;20497;-47
2021/12/05 15:27:21;;;;;;;2.50;1.38;;;;;;;;;;5052318;28;20029;-52
2021/12/05 15:29:48;;;;;;;9.90;1.70;;;;;;;;;;5051423;28;20028;-56
2021/12/05 15:32:18;;;;;;;3.47;1.17;;;;;;;;;;5052124;28;20055;-60
2021/12/05 15:34:45;;;;;;;4.78;1.35;;;;;;;;;;5051421;28;20049;-59
2021/12/05 15:37:12;;;;;;;6.18;1.65;;;;;;;;;;5052143;28;20036;-61
2021/12/05 15:39:42;;;;;;;7.45;1.23;;;;;;;;;;5051354;28;20028;-60
2021/12/05 15:42:22;;;;;;;7.13;1.33;;;;;;;;;;5051634;28;20060;-63
2021/12/05 15:44:50;;;;;;;7.43;2.17;;;;;;;;;;5050489;28;20053;-59
2021/12/05 15:47:21;;;;;;;10.25;1.67;;;;;;;;;;5051805;28;20034;-61
2021/12/05 15:50:06;;;;;;;16.38;2.13;;;;;;;;;;5050793;28;20070;-61
2021/12/05 15:52:36;;;;;;;8.25;2.55;;;;;;;;;;5051335;28;20091;-60
2021/12/05 15:55:05;;;;;;;3.22;1.35;;;;;;;;;;5050750;28;20032;-58
2021/12/05 15:57:33;;;;;;;6.03;1.48;;;;;;;;;;5051539;28;20033;-58
2021/12/05 16:00:01;;;;;;;4.60;1.80;;;;;;;;;;5032339;28;20163;-59
2021/12/05 16:02:27;;;;;;;5.93;1.35;;;;;;;;;;5036281;28;20036;-56
2021/12/05 16:04:56;;;;;;;3.33;1.42;;;;;;;;;;5049467;28;20090;-72
2021/12/05 16:07:25;;;;;;;3.53;1.33;;;;;;;;;;5051432;28;20017;-61
2021/12/05 16:09:51;;;;;;;5.97;1.80;;;;;;;;;;5049620;28;20472;-53
2021/12/05 16:12:18;;;;;;;6.90;1.73;;;;;;;;;;5051276;28;20025;-58
2021/12/05 16:14:52;;;;;;;2.90;1.45;;;;;;;;;;5050790;28;20044;-60
2021/12/05 16:17:18;;;;;;;11.10;1.80;;;;;;;;;;5051679;28;20025;-67
2021/12/05 16:20:03;;;;;;;6.40;2.28;;;;;;;;;;5050826;28;20021;-72
2021/12/05 16:22:29;;;;;;;4.63;1.33;;;;;;;;;;5050487;28;20033;-71
2021/12/05 16:24:55;;;;;;;3.95;2.20;;;;;;;;;;5050632;28;20028;-67
2021/12/05 16:27:21;;;;;;;3.30;1.45;;;;;;;;;;5051210;28;20123;-71
2021/12/05 16:29:47;;;;;;;9.60;2.55;;;;;;;;;;5050885;28;20130;-68
2021/12/05 16:32:14;;;;;;;8.95;2.35;;;;;;;;;;5051737;28;20033;-72
2021/12/05 16:34:46;;;;;;;8.30;2.13;;;;;;;;;;5051002;28;20029;-69
2021/12/05 16:37:12;;;;;;;;;;;;;;;;;;5052119;28;20071;-64
2021/12/05 16:39:38;;;;;;;7.70;2.20;;;;;;;;;;5050834;28;19909;-66
2021/12/05 16:42:07;;;;;;;7.32;1.75;;;;;;;;;;5051136;28;20416;-69
2021/12/05 16:44:34;;;;;;;6.13;2.65;;;;;;;;;;5050808;28;20020;-68
2021/12/05 16:47:04;;;;;;;6.97;2.88;;;;;;;;;;5050661;28;20029;-68
2021/12/05 16:49:41;;;;;;;7.72;3.38;;;;;;;;;;5050956;28;20029;-67
2021/12/05 16:52:09;;;;;;;13.82;4.40;;;;;;;;;;5051270;28;20033;-71
2021/12/05 16:54:37;;;;;;;14.95;6.75;;;;;;;;;;5050821;28;20544;-66
2021/12/05 16:57:06;;;;;;;12.35;5.68;;;;;;;;;;5051027;28;20036;-62
2021/12/05 16:59:59;;;;;;;13.45;5.53;;;;;;;;;;5036167;28;20022;-62
2021/12/05 17:02:25;;;;;;;;;;;;;;;;;;5024796;28;20045;-62
2021/12/05 17:04:58;;;;;;;12.77;5.65;;;;;;;;;;5030225;28;19955;-66
2021/12/05 17:07:43;;;;;;;19.55;6.50;;;;;;;;;;5034169;28;20041;-58
2021/12/05 17:10:09;;;;;;;11.05;4.95;;;;;;;;;;5035105;28;20031;-62
2021/12/05 17:12:42;;;;;;;14.13;6.07;;;;;;;;;;5036493;28;20071;-65
2021/12/05 17:15:11;;;;;;;14.25;5.53;;;;;;;;;;5034410;28;20521;-59
2021/12/05 17:17:37;;;;;;;13.57;5.45;;;;;;;;;;5033768;28;20029;-66
2021/12/05 17:20:23;;;;;;;9.30;3.55;;;;;;;;;;5034335;28;20116;-61
2021/12/05 17:22:52;;;;;;;7.97;3.95;;;;;;;;;;5033739;28;20108;-63
2021/12/05 17:25:29;;;;;;;8.55;3.75;;;;;;;;;;5034453;28;20029;-62
2021/12/05 17:27:56;;;;;;;7.78;3.60;;;;;;;;;;5033417;28;20214;-59
2021/12/05 17:30:22;;;;;;;9.63;3.20;;;;;;;;;;5034451;28;20049;-61
2021/12/05 17:32:48;;;;;;;9.02;3.63;;;;;;;;;;5042845;28;20474;-60
2021/12/05 17:35:15;;;;;;;8.05;3.53;;;;;;;;;;5054401;28;20075;-60
2021/12/05 17:37:44;;;;;;;9.07;3.70;;;;;;;;;;5053206;28;20033;-61
2021/12/05 17:40:10;;;;;;;7.32;3.33;;;;;;;;;;5054233;28;20351;-58
2021/12/05 17:42:36;;;;;;;9.35;3.72;;;;;;;;;;5052738;28;20090;-56
2021/12/05 17:45:04;;;;;;;16.73;4.18;;;;;;;;;;5052928;28;20080;-58
2021/12/05 17:47:30;;;;;;;10.32;4.18;;;;;;;;;;5053532;28;20025;-59
2021/12/05 17:49:58;;;;;;;5.78;2.20;;;;;;;;;;5052155;28;20767;-55
2021/12/05 17:52:26;;;;;;;5.50;2.50;;;;;;;;;;5053086;28;20025;-58
2021/12/05 17:55:00;;;;;;;9.57;2.88;;;;;;;;;;5047440;28;20021;-58
2021/12/05 17:57:48;;;;;;;5.65;3.00;;;;;;;;;;5054146;28;20021;-55
2021/12/05 18:00:33;;;;;;;9.10;3.22;;;;;;;;;;5033859;28;20022;-57
2021/12/05 18:03:00;;;;;;;7.40;2.95;;;;;;;;;;5033566;28;20018;-59
2021/12/05 18:05:28;;;;;;;7.40;2.72;;;;;;;;;;5034131;28;20497;-59
2021/12/05 18:07:57;;;;;;;25.45;4.47;;;;;;;;;;5032982;28;20029;-57
2021/12/05 18:10:26;;;;;;;7.00;2.80;;;;;;;;;;5034008;28;20025;-58
2021/12/05 18:12:57;;;;;;;6.05;2.88;;;;;;;;;;5033141;28;20029;-49
2021/12/05 18:15:27;;;;;;;5.55;2.78;;;;;;;;;;5033627;28;20040;-58
2021/12/05 18:17:55;;;;;;;8.40;2.85;;;;;;;;;;5037325;28;20021;-60
2021/12/05 18:20:25;;;;;;;7.70;2.58;;;;;;;;;;5046232;28;20029;-62
2021/12/05 18:22:52;;;;;;;6.70;3.17;;;;;;;;;;5041551;28;20559;-58
2021/12/05 18:25:18;;;;;;;5.53;2.90;;;;;;;;;;5047493;28;20131;-60
2021/12/05 18:27:44;;;;;;;10.10;2.92;;;;;;;;;;5039327;28;20100;-54
2021/12/05 18:30:12;;;;;;;7.32;3.25;;;;;;;;;;5053454;28;20424;-61
2021/12/05 18:32:38;;;;;;;11.02;3.03;;;;;;;;;;5050060;28;20021;-58
2021/12/05 18:35:05;;;;;;;4.78;2.67;;;;;;;;;;5051432;28;20029;-59
2021/12/05 18:37:31;;;;;;;4.97;2.55;;;;;;;;;;5048219;28;20492;-59
2021/12/05 18:39:57;;;;;;;5.07;2.47;;;;;;;;;;5032539;28;20028;-59
2021/12/05 18:42:24;;;;;;;4.35;1.90;;;;;;;;;;5036020;28;20060;-58
2021/12/05 18:44:55;;;;;;;9.05;2.45;;;;;;;;;;5036674;28;20111;-58
2021/12/05 18:47:21;;;;;;;5.07;2.33;;;;;;;;;;5035748;28;20044;-58
2021/12/05 18:49:48;;;;;;;5.90;2.72;;;;;;;;;;5052245;28;20032;-54
2021/12/05 18:52:15;;;;;;;4.82;2.47;;;;;;;;;;5051023;28;20048;-54
2021/12/05 18:54:42;;;;;;;5.53;2.97;;;;;;;;;;5032847;28;20423;-59
2021/12/05 18:57:18;;;;;;;5.15;2.60;;;;;;;;;;5034145;28;20025;-54
2021/12/05 18:59:51;;;;;;;3.45;1.80;;;;;;;;;;5048444;28;20025;-56
2021/12/05 19:05:07;;;;;;;4.95;2.63;;;;;;;;;;5035728;28;20028;-57
2021/12/05 19:07:46;;;;;;;9.60;2.63;;;;;;;;;;5036597;28;20040;-56
2021/12/05 19:12:57;;;;;;;6.22;2.10;;;;;;;;;;5044169;28;20063;-55
2021/12/05 19:15:23;;;;;;;4.10;2.70;;;;;;;;;;5039284;28;20498;-53
2021/12/05 19:17:52;;;;;;;6.63;2.53;;;;;;;;;;5032434;28;20455;-55
2021/12/05 19:20:21;;;;;;;4.75;2.65;;;;;;;;;;5042863;28;20433;-57
2021/12/05 19:22:47;;;;;;;6.18;2.58;;;;;;;;;;5047840;28;20032;-57
2021/12/05 19:25:16;;;;;;;7.88;2.97;;;;;;;;;;5052469;28;20025;-55
2021/12/05 19:27:42;;;;;;;5.50;2.35;;;;;;;;;;5052030;28;20036;-63
2021/12/05 19:30:11;;;;;;;6.75;2.47;;;;;;;;;;5051892;28;20025;-54
2021/12/05 19:32:37;;;;;;;7.20;2.20;;;;;;;;;;5051928;28;20071;-51
2021/12/05 19:35:04;;;;;;;4.45;2.42;;;;;;;;;;5051332;28;20037;-53
2021/12/05 19:37:30;;;;;;;6.60;2.03;;;;;;;;;;5052281;28;20108;-54
2021/12/05 19:39:57;;;;;;;7.85;2.13;;;;;;;;;;5051327;28;20028;-52
2021/12/05 19:42:25;;;;;;;7.35;3.22;;;;;;;;;;5048899;28;20545;-52
2021/12/05 19:44:52;;;;;;;4.93;2.63;;;;;;;;;;5032183;28;20058;-53
2021/12/05 19:47:18;;;;;;;4.47;2.40;;;;;;;;;;5032800;28;20032;-52
2021/12/05 19:49:44;;;;;;;6.78;2.15;;;;;;;;;;5031583;28;20382;-60
2021/12/05 19:52:12;;;;;;;5.60;2.40;;;;;;;;;;5032043;28;20087;-50
2021/12/05 19:54:38;;;;;;;6.75;2.50;;;;;;;;;;5031927;28;20459;-53
2021/12/05 19:57:04;;;;;;;5.35;2.30;;;;;;;;;;5027294;28;20040;-48
2021/12/05 19:59:30;;;;;;;4.75;2.80;;;;;;;;;;5038293;28;20026;-53
2021/12/05 20:01:56;;;;;;;4.75;2.00;;;;;;;;;;5032255;28;20043;-48
2021/12/05 20:04:22;;;;;;;6.00;2.50;;;;;;;;;;5031704;28;20075;-50
2021/12/05 20:06:49;;;;;;;3.67;2.00;;;;;;;;;;5029899;28;20104;-52
2021/12/05 20:09:16;;;;;;;3.78;2.13;;;;;;;;;;5031843;28;20025;-49
2021/12/05 20:11:43;;;;;;;6.82;2.97;;;;;;;;;;5031809;28;20078;-50
2021/12/05 20:14:09;;;;;;;5.57;2.60;;;;;;;;;;5031465;28;20033;-53
2021/12/05 20:16:35;;;;;;;6.22;2.78;;;;;;;;;;5031276;28;20083;-56
2021/12/05 20:19:02;;;;;;;6.57;2.42;;;;;;;;;;5030843;28;20102;-48